sensor_id;sensor_type;location;lat;lon;timestamp;P1;durP1;ratioP1;P2;durP2;ratioP2
22425;SDS011;11380;50.822;15.790;2023-03-07T00:01:49;91.07;;;65.77;;
22425;SDS011;11380;50.822;15.790;2023-03-07T00:06:56;64.73;;;56.57;;
22425;SDS011;11380;50.822;15.790;2023-03-07T00:12:05;84.37;;;63.27;;
22425;SDS011;11380;50.822;15.790;2023-03-07T00:17:14;81.03;;;65.63;;
22425;SDS011;11380;50.822;15.790;2023-03-07T00:22:21;73.57;;;60.00;;
22425;SDS011;11380;50.822;15.790;2023-03-07T00:27:29;79.67;;;60.83;;
22425;SDS011;11380;50.822;15.790;2023-03-07T00:32:37;69.37;;;58.57;;
22425;SDS011;11380;50.822;15.790;2023-03-07T00:37:44;78.07;;;60.23;;
22425;SDS011;11380;50.822;15.790;2023-03-07T00:42:52;83.13;;;62.93;;
22425;SDS011;11380;50.822;15.790;2023-03-07T00:47:59;79.83;;;64.47;;
22425;SDS011;11380;50.822;15.790;2023-03-07T00:58:13;60.70;;;52.73;;
22425;SDS011;11380;50.822;15.790;2023-03-07T01:03:21;56.00;;;50.53;;
22425;SDS011;11380;50.822;15.790;2023-03-07T01:08:28;57.47;;;51.53;;
22425;SDS011;11380;50.822;15.790;2023-03-07T01:13:35;59.50;;;53.37;;
22425;SDS011;11380;50.822;15.790;2023-03-07T01:18:44;54.30;;;48.85;;
22425;SDS011;11380;50.822;15.790;2023-03-07T01:23:57;57.13;;;51.23;;
22425;SDS011;11380;50.822;15.790;2023-03-07T01:29:05;66.70;;;54.97;;
22425;SDS011;11380;50.822;15.790;2023-03-07T01:34:14;61.07;;;54.63;;
22425;SDS011;11380;50.822;15.790;2023-03-07T01:39:22;56.55;;;50.78;;
22425;SDS011;11380;50.822;15.790;2023-03-07T01:44:30;54.30;;;48.63;;
22425;SDS011;11380;50.822;15.790;2023-03-07T01:49:58;55.40;;;49.83;;
22425;SDS011;11380;50.822;15.790;2023-03-07T02:00:24;56.20;;;50.85;;
22425;SDS011;11380;50.822;15.790;2023-03-07T02:05:37;62.23;;;52.83;;
22425;SDS011;11380;50.822;15.790;2023-03-07T02:11:04;56.40;;;50.33;;
22425;SDS011;11380;50.822;15.790;2023-03-07T02:16:13;57.33;;;51.30;;
22425;SDS011;11380;50.822;15.790;2023-03-07T02:21:37;52.15;;;47.65;;
22425;SDS011;11380;50.822;15.790;2023-03-07T02:26:50;47.73;;;44.10;;
22425;SDS011;11380;50.822;15.790;2023-03-07T02:31:58;47.37;;;43.67;;
22425;SDS011;11380;50.822;15.790;2023-03-07T02:37:10;47.23;;;43.63;;
22425;SDS011;11380;50.822;15.790;2023-03-07T02:42:22;47.30;;;43.67;;
22425;SDS011;11380;50.822;15.790;2023-03-07T02:47:31;47.40;;;43.70;;
22425;SDS011;11380;50.822;15.790;2023-03-07T02:52:40;48.07;;;44.43;;
22425;SDS011;11380;50.822;15.790;2023-03-07T02:57:48;47.83;;;44.13;;
22425;SDS011;11380;50.822;15.790;2023-03-07T03:02:55;47.83;;;44.33;;
22425;SDS011;11380;50.822;15.790;2023-03-07T03:08:03;47.47;;;43.97;;
22425;SDS011;11380;50.822;15.790;2023-03-07T03:13:10;47.63;;;44.00;;
22425;SDS011;11380;50.822;15.790;2023-03-07T03:23:25;44.57;;;41.37;;
22425;SDS011;11380;50.822;15.790;2023-03-07T03:28:33;46.53;;;43.03;;
22425;SDS011;11380;50.822;15.790;2023-03-07T03:33:41;46.63;;;43.23;;
22425;SDS011;11380;50.822;15.790;2023-03-07T03:38:55;46.30;;;42.87;;
22425;SDS011;11380;50.822;15.790;2023-03-07T03:44:00;48.17;;;44.48;;
22425;SDS011;11380;50.822;15.790;2023-03-07T03:49:10;47.53;;;43.90;;
22425;SDS011;11380;50.822;15.790;2023-03-07T03:54:21;49.55;;;45.43;;
22425;SDS011;11380;50.822;15.790;2023-03-07T03:59:28;46.70;;;43.15;;
22425;SDS011;11380;50.822;15.790;2023-03-07T04:04:36;48.33;;;44.60;;
22425;SDS011;11380;50.822;15.790;2023-03-07T04:09:44;48.30;;;44.60;;
22425;SDS011;11380;50.822;15.790;2023-03-07T04:14:51;52.63;;;48.07;;
22425;SDS011;11380;50.822;15.790;2023-03-07T04:19:58;49.23;;;45.13;;
22425;SDS011;11380;50.822;15.790;2023-03-07T04:25:05;49.80;;;45.70;;
22425;SDS011;11380;50.822;15.790;2023-03-07T04:30:14;49.97;;;45.97;;
22425;SDS011;11380;50.822;15.790;2023-03-07T04:35:21;49.03;;;45.12;;
22425;SDS011;11380;50.822;15.790;2023-03-07T04:40:31;49.57;;;45.53;;
22425;SDS011;11380;50.822;15.790;2023-03-07T04:45:39;49.67;;;45.57;;
22425;SDS011;11380;50.822;15.790;2023-03-07T04:50:49;49.53;;;45.53;;
22425;SDS011;11380;50.822;15.790;2023-03-07T04:56:02;51.90;;;47.40;;
22425;SDS011;11380;50.822;15.790;2023-03-07T05:01:07;52.97;;;47.77;;
22425;SDS011;11380;50.822;15.790;2023-03-07T05:06:14;50.97;;;46.77;;
22425;SDS011;11380;50.822;15.790;2023-03-07T05:11:23;50.38;;;46.28;;
22425;SDS011;11380;50.822;15.790;2023-03-07T05:16:29;50.08;;;46.02;;
22425;SDS011;11380;50.822;15.790;2023-03-07T05:21:36;49.90;;;45.90;;
22425;SDS011;11380;50.822;15.790;2023-03-07T05:26:45;54.00;;;49.13;;
22425;SDS011;11380;50.822;15.790;2023-03-07T05:31:54;53.30;;;48.57;;
22425;SDS011;11380;50.822;15.790;2023-03-07T05:37:02;50.83;;;46.47;;
22425;SDS011;11380;50.822;15.790;2023-03-07T05:47:16;51.88;;;47.38;;
22425;SDS011;11380;50.822;15.790;2023-03-07T05:52:25;51.35;;;46.88;;
22425;SDS011;11380;50.822;15.790;2023-03-07T05:57:33;51.47;;;47.00;;
22425;SDS011;11380;50.822;15.790;2023-03-07T06:02:43;55.00;;;50.00;;
22425;SDS011;11380;50.822;15.790;2023-03-07T06:07:50;49.83;;;45.70;;
22425;SDS011;11380;50.822;15.790;2023-03-07T06:12:58;56.83;;;51.27;;
22425;SDS011;11380;50.822;15.790;2023-03-07T06:18:05;51.58;;;47.23;;
22425;SDS011;11380;50.822;15.790;2023-03-07T06:23:12;50.78;;;46.53;;
22425;SDS011;11380;50.822;15.790;2023-03-07T06:28:19;52.45;;;47.80;;
22425;SDS011;11380;50.822;15.790;2023-03-07T06:33:27;47.08;;;43.70;;
22425;SDS011;11380;50.822;15.790;2023-03-07T06:38:34;48.97;;;44.93;;
22425;SDS011;11380;50.822;15.790;2023-03-07T06:43:42;51.90;;;47.57;;
22425;SDS011;11380;50.822;15.790;2023-03-07T06:48:50;49.17;;;45.30;;
22425;SDS011;11380;50.822;15.790;2023-03-07T06:53:58;55.10;;;50.13;;
22425;SDS011;11380;50.822;15.790;2023-03-07T06:59:07;43.97;;;41.07;;
22425;SDS011;11380;50.822;15.790;2023-03-07T07:09:07;48.07;;;44.47;;
22425;SDS011;11380;50.822;15.790;2023-03-07T07:14:18;49.25;;;45.05;;
22425;SDS011;11380;50.822;15.790;2023-03-07T07:19:26;51.50;;;46.88;;
22425;SDS011;11380;50.822;15.790;2023-03-07T07:24:35;47.23;;;43.78;;
22425;SDS011;11380;50.822;15.790;2023-03-07T07:29:42;49.33;;;45.37;;
22425;SDS011;11380;50.822;15.790;2023-03-07T07:34:49;48.40;;;44.60;;
22425;SDS011;11380;50.822;15.790;2023-03-07T07:39:56;47.62;;;44.03;;
22425;SDS011;11380;50.822;15.790;2023-03-07T07:45:03;49.63;;;45.73;;
22425;SDS011;11380;50.822;15.790;2023-03-07T07:50:10;49.07;;;45.23;;
22425;SDS011;11380;50.822;15.790;2023-03-07T07:55:17;49.58;;;45.55;;
22425;SDS011;11380;50.822;15.790;2023-03-07T08:00:24;49.43;;;45.37;;
22425;SDS011;11380;50.822;15.790;2023-03-07T08:05:31;47.40;;;43.83;;
22425;SDS011;11380;50.822;15.790;2023-03-07T08:15:46;46.57;;;43.23;;
22425;SDS011;11380;50.822;15.790;2023-03-07T08:20:53;45.87;;;42.67;;
22425;SDS011;11380;50.822;15.790;2023-03-07T08:26:04;47.23;;;43.73;;
22425;SDS011;11380;50.822;15.790;2023-03-07T08:31:14;48.40;;;44.23;;
22425;SDS011;11380;50.822;15.790;2023-03-07T08:36:24;47.20;;;43.63;;
22425;SDS011;11380;50.822;15.790;2023-03-07T08:41:32;46.67;;;43.30;;
22425;SDS011;11380;50.822;15.790;2023-03-07T08:46:41;47.17;;;43.70;;
22425;SDS011;11380;50.822;15.790;2023-03-07T08:51:48;46.60;;;43.10;;
22425;SDS011;11380;50.822;15.790;2023-03-07T09:02:02;47.37;;;43.77;;
22425;SDS011;11380;50.822;15.790;2023-03-07T09:12:14;47.10;;;43.60;;
22425;SDS011;11380;50.822;15.790;2023-03-07T09:22:26;47.85;;;44.33;;
22425;SDS011;11380;50.822;15.790;2023-03-07T09:27:37;48.03;;;44.43;;
22425;SDS011;11380;50.822;15.790;2023-03-07T09:32:43;47.40;;;43.87;;
22425;SDS011;11380;50.822;15.790;2023-03-07T09:37:50;47.65;;;44.05;;
22425;SDS011;11380;50.822;15.790;2023-03-07T09:43:03;49.00;;;45.20;;
22425;SDS011;11380;50.822;15.790;2023-03-07T09:48:27;46.50;;;43.10;;
22425;SDS011;11380;50.822;15.790;2023-03-07T09:54:47;46.87;;;43.37;;
22425;SDS011;11380;50.822;15.790;2023-03-07T09:59:28;46.77;;;43.35;;
22425;SDS011;11380;50.822;15.790;2023-03-07T10:10:23;46.70;;;43.30;;
22425;SDS011;11380;50.822;15.790;2023-03-07T10:15:45;47.37;;;43.77;;
22425;SDS011;11380;50.822;15.790;2023-03-07T10:21:00;46.77;;;43.27;;
22425;SDS011;11380;50.822;15.790;2023-03-07T10:31:42;46.77;;;43.27;;
22425;SDS011;11380;50.822;15.790;2023-03-07T10:37:00;46.17;;;42.77;;
22425;SDS011;11380;50.822;15.790;2023-03-07T10:42:12;46.93;;;43.50;;
22425;SDS011;11380;50.822;15.790;2023-03-07T10:47:22;46.20;;;42.60;;
22425;SDS011;11380;50.822;15.790;2023-03-07T10:52:38;45.83;;;42.53;;
22425;SDS011;11380;50.822;15.790;2023-03-07T10:57:46;46.37;;;42.97;;
22425;SDS011;11380;50.822;15.790;2023-03-07T11:02:54;46.43;;;43.03;;
22425;SDS011;11380;50.822;15.790;2023-03-07T11:08:18;46.97;;;43.47;;
22425;SDS011;11380;50.822;15.790;2023-03-07T11:13:29;47.77;;;44.17;;
22425;SDS011;11380;50.822;15.790;2023-03-07T11:18:43;47.97;;;44.27;;
22425;SDS011;11380;50.822;15.790;2023-03-07T11:23:57;46.03;;;42.73;;
22425;SDS011;11380;50.822;15.790;2023-03-07T11:29:11;46.92;;;43.33;;
22425;SDS011;11380;50.822;15.790;2023-03-07T11:34:21;46.30;;;42.90;;
22425;SDS011;11380;50.822;15.790;2023-03-07T11:39:33;46.27;;;42.93;;
22425;SDS011;11380;50.822;15.790;2023-03-07T11:44:52;46.03;;;42.63;;
22425;SDS011;11380;50.822;15.790;2023-03-07T11:55:35;46.70;;;43.10;;
22425;SDS011;11380;50.822;15.790;2023-03-07T12:07:21;46.77;;;43.30;;
22425;SDS011;11380;50.822;15.790;2023-03-07T12:23:26;47.30;;;43.73;;
22425;SDS011;11380;50.822;15.790;2023-03-07T12:28:43;47.33;;;43.73;;
22425;SDS011;11380;50.822;15.790;2023-03-07T12:39:30;46.47;;;43.07;;
22425;SDS011;11380;50.822;15.790;2023-03-07T12:55:43;47.53;;;43.85;;
22425;SDS011;11380;50.822;15.790;2023-03-07T13:00:56;48.37;;;44.60;;
22425;SDS011;11380;50.822;15.790;2023-03-07T13:06:14;48.85;;;44.93;;
22425;SDS011;11380;50.822;15.790;2023-03-07T13:11:27;48.53;;;44.67;;
22425;SDS011;11380;50.822;15.790;2023-03-07T13:16:46;47.97;;;44.23;;
22425;SDS011;11380;50.822;15.790;2023-03-07T13:21:50;48.20;;;44.30;;
22425;SDS011;11380;50.822;15.790;2023-03-07T13:26:57;48.10;;;44.30;;
22425;SDS011;11380;50.822;15.790;2023-03-07T13:32:45;47.70;;;44.00;;
22425;SDS011;11380;50.822;15.790;2023-03-07T13:37:49;49.00;;;45.20;;
22425;SDS011;11380;50.822;15.790;2023-03-07T13:53:51;49.57;;;45.67;;
22425;SDS011;11380;50.822;15.790;2023-03-07T14:09:59;48.13;;;44.33;;
22425;SDS011;11380;50.822;15.790;2023-03-07T14:26:34;47.97;;;44.27;;
22425;SDS011;11380;50.822;15.790;2023-03-07T14:31:41;48.57;;;44.70;;
22425;SDS011;11380;50.822;15.790;2023-03-07T14:36:51;49.07;;;45.03;;
22425;SDS011;11380;50.822;15.790;2023-03-07T14:42:09;48.60;;;44.73;;
22425;SDS011;11380;50.822;15.790;2023-03-07T14:53:25;48.13;;;44.47;;
22425;SDS011;11380;50.822;15.790;2023-03-07T14:58:44;47.20;;;43.60;;
22425;SDS011;11380;50.822;15.790;2023-03-07T15:03:57;48.23;;;44.57;;
22425;SDS011;11380;50.822;15.790;2023-03-07T15:09:04;46.70;;;43.30;;
22425;SDS011;11380;50.822;15.790;2023-03-07T15:14:19;47.75;;;44.05;;
22425;SDS011;11380;50.822;15.790;2023-03-07T15:19:36;46.87;;;43.27;;
22425;SDS011;11380;50.822;15.790;2023-03-07T15:24:46;45.57;;;42.30;;
22425;SDS011;11380;50.822;15.790;2023-03-07T15:29:55;46.53;;;43.07;;
22425;SDS011;11380;50.822;15.790;2023-03-07T15:40:31;46.40;;;42.90;;
22425;SDS011;11380;50.822;15.790;2023-03-07T15:45:41;46.55;;;43.15;;
22425;SDS011;11380;50.822;15.790;2023-03-07T15:50:52;47.37;;;43.77;;
22425;SDS011;11380;50.822;15.790;2023-03-07T15:56:03;47.00;;;43.50;;
22425;SDS011;11380;50.822;15.790;2023-03-07T16:01:16;46.40;;;42.90;;
22425;SDS011;11380;50.822;15.790;2023-03-07T16:11:51;47.77;;;44.20;;
22425;SDS011;11380;50.822;15.790;2023-03-07T16:17:05;45.90;;;42.60;;
22425;SDS011;11380;50.822;15.790;2023-03-07T16:22:20;46.48;;;43.02;;
22425;SDS011;11380;50.822;15.790;2023-03-07T16:27:28;47.08;;;43.58;;
22425;SDS011;11380;50.822;15.790;2023-03-07T16:32:36;47.03;;;43.63;;
22425;SDS011;11380;50.822;15.790;2023-03-07T16:37:43;46.47;;;43.07;;
22425;SDS011;11380;50.822;15.790;2023-03-07T16:42:50;45.37;;;42.13;;
22425;SDS011;11380;50.822;15.790;2023-03-07T16:47:58;47.50;;;43.80;;
22425;SDS011;11380;50.822;15.790;2023-03-07T16:53:06;46.47;;;42.87;;
22425;SDS011;11380;50.822;15.790;2023-03-07T16:58:18;46.80;;;43.40;;
22425;SDS011;11380;50.822;15.790;2023-03-07T17:03:25;46.10;;;42.80;;
22425;SDS011;11380;50.822;15.790;2023-03-07T17:08:33;46.97;;;43.37;;
22425;SDS011;11380;50.822;15.790;2023-03-07T17:13:40;46.80;;;43.40;;
22425;SDS011;11380;50.822;15.790;2023-03-07T17:18:47;48.10;;;44.40;;
22425;SDS011;11380;50.822;15.790;2023-03-07T17:23:54;46.63;;;43.23;;
22425;SDS011;11380;50.822;15.790;2023-03-07T17:29:01;47.00;;;43.52;;
22425;SDS011;11380;50.822;15.790;2023-03-07T17:34:16;47.33;;;43.80;;
22425;SDS011;11380;50.822;15.790;2023-03-07T17:39:30;48.07;;;44.47;;
22425;SDS011;11380;50.822;15.790;2023-03-07T17:44:39;47.73;;;44.03;;
22425;SDS011;11380;50.822;15.790;2023-03-07T17:49:46;46.97;;;43.47;;
22425;SDS011;11380;50.822;15.790;2023-03-07T17:54:53;48.13;;;44.47;;
22425;SDS011;11380;50.822;15.790;2023-03-07T18:00:00;46.80;;;43.33;;
22425;SDS011;11380;50.822;15.790;2023-03-07T18:05:10;48.40;;;44.60;;
22425;SDS011;11380;50.822;15.790;2023-03-07T18:10:18;48.40;;;44.75;;
22425;SDS011;11380;50.822;15.790;2023-03-07T18:15:26;47.13;;;43.68;;
22425;SDS011;11380;50.822;15.790;2023-03-07T18:20:33;45.97;;;42.67;;
22425;SDS011;11380;50.822;15.790;2023-03-07T18:25:41;49.70;;;45.63;;
22425;SDS011;11380;50.822;15.790;2023-03-07T18:30:55;49.90;;;45.53;;
22425;SDS011;11380;50.822;15.790;2023-03-07T18:36:11;49.07;;;45.27;;
22425;SDS011;11380;50.822;15.790;2023-03-07T18:41:21;47.78;;;44.08;;
22425;SDS011;11380;50.822;15.790;2023-03-07T18:46:30;49.37;;;45.57;;
22425;SDS011;11380;50.822;15.790;2023-03-07T18:51:37;49.00;;;45.27;;
22425;SDS011;11380;50.822;15.790;2023-03-07T18:56:47;48.87;;;44.97;;
22425;SDS011;11380;50.822;15.790;2023-03-07T19:01:54;52.87;;;48.30;;
22425;SDS011;11380;50.822;15.790;2023-03-07T19:07:02;51.50;;;47.00;;
22425;SDS011;11380;50.822;15.790;2023-03-07T19:12:10;49.94;;;45.94;;
22425;SDS011;11380;50.822;15.790;2023-03-07T19:17:19;49.40;;;45.60;;
22425;SDS011;11380;50.822;15.790;2023-03-07T19:22:32;48.15;;;44.50;;
22425;SDS011;11380;50.822;15.790;2023-03-07T19:27:35;48.20;;;44.60;;
22425;SDS011;11380;50.822;15.790;2023-03-07T19:37:49;48.78;;;44.93;;
22425;SDS011;11380;50.822;15.790;2023-03-07T19:42:56;48.63;;;44.83;;
22425;SDS011;11380;50.822;15.790;2023-03-07T19:48:02;49.60;;;45.70;;
22425;SDS011;11380;50.822;15.790;2023-03-07T19:53:10;48.38;;;44.63;;
22425;SDS011;11380;50.822;15.790;2023-03-07T19:58:18;50.08;;;46.13;;
22425;SDS011;11380;50.822;15.790;2023-03-07T20:03:24;49.85;;;45.63;;
22425;SDS011;11380;50.822;15.790;2023-03-07T20:08:32;52.40;;;47.27;;
22425;SDS011;11380;50.822;15.790;2023-03-07T20:13:40;47.47;;;43.67;;
22425;SDS011;11380;50.822;15.790;2023-03-07T20:18:55;49.87;;;45.93;;
22425;SDS011;11380;50.822;15.790;2023-03-07T20:23:58;49.60;;;45.57;;
22425;SDS011;11380;50.822;15.790;2023-03-07T20:29:06;50.80;;;46.23;;
22425;SDS011;11380;50.822;15.790;2023-03-07T20:34:14;51.90;;;47.25;;
22425;SDS011;11380;50.822;15.790;2023-03-07T20:39:21;51.50;;;46.97;;
22425;SDS011;11380;50.822;15.790;2023-03-07T20:44:28;50.88;;;46.40;;
22425;SDS011;11380;50.822;15.790;2023-03-07T20:49:36;50.50;;;46.23;;
22425;SDS011;11380;50.822;15.790;2023-03-07T20:54:45;49.47;;;45.53;;
22425;SDS011;11380;50.822;15.790;2023-03-07T20:59:53;51.03;;;46.53;;
22425;SDS011;11380;50.822;15.790;2023-03-07T21:05:01;52.40;;;47.73;;
22425;SDS011;11380;50.822;15.790;2023-03-07T21:10:08;52.47;;;47.80;;
22425;SDS011;11380;50.822;15.790;2023-03-07T21:15:16;50.10;;;46.10;;
22425;SDS011;11380;50.822;15.790;2023-03-07T21:20:23;50.33;;;46.13;;
22425;SDS011;11380;50.822;15.790;2023-03-07T21:25:30;51.68;;;47.17;;
22425;SDS011;11380;50.822;15.790;2023-03-07T21:30:37;50.23;;;46.00;;
22425;SDS011;11380;50.822;15.790;2023-03-07T21:35:45;53.03;;;48.53;;
22425;SDS011;11380;50.822;15.790;2023-03-07T21:40:53;48.70;;;44.80;;
22425;SDS011;11380;50.822;15.790;2023-03-07T21:46:08;49.63;;;45.43;;
22425;SDS011;11380;50.822;15.790;2023-03-07T21:51:14;48.57;;;44.80;;
22425;SDS011;11380;50.822;15.790;2023-03-07T21:56:22;50.40;;;46.20;;
22425;SDS011;11380;50.822;15.790;2023-03-07T22:01:29;50.03;;;45.93;;
22425;SDS011;11380;50.822;15.790;2023-03-07T22:06:37;49.90;;;45.97;;
22425;SDS011;11380;50.822;15.790;2023-03-07T22:11:45;53.13;;;47.88;;
22425;SDS011;11380;50.822;15.790;2023-03-07T22:16:52;51.93;;;47.53;;
22425;SDS011;11380;50.822;15.790;2023-03-07T22:22:00;51.40;;;46.93;;
22425;SDS011;11380;50.822;15.790;2023-03-07T22:27:07;48.70;;;44.97;;
22425;SDS011;11380;50.822;15.790;2023-03-07T22:32:15;51.10;;;46.83;;
22425;SDS011;11380;50.822;15.790;2023-03-07T22:37:22;54.40;;;48.80;;
22425;SDS011;11380;50.822;15.790;2023-03-07T22:42:29;49.80;;;45.60;;
22425;SDS011;11380;50.822;15.790;2023-03-07T22:47:36;86.80;;;56.50;;
22425;SDS011;11380;50.822;15.790;2023-03-07T22:52:44;49.93;;;45.87;;
22425;SDS011;11380;50.822;15.790;2023-03-07T22:57:51;49.48;;;45.65;;
22425;SDS011;11380;50.822;15.790;2023-03-07T23:02:58;50.50;;;46.43;;
22425;SDS011;11380;50.822;15.790;2023-03-07T23:08:05;50.40;;;46.23;;
22425;SDS011;11380;50.822;15.790;2023-03-07T23:13:12;49.20;;;45.10;;
22425;SDS011;11380;50.822;15.790;2023-03-07T23:18:20;49.00;;;45.10;;
22425;SDS011;11380;50.822;15.790;2023-03-07T23:23:28;48.30;;;44.48;;
22425;SDS011;11380;50.822;15.790;2023-03-07T23:28:35;51.13;;;46.57;;
22425;SDS011;11380;50.822;15.790;2023-03-07T23:33:42;48.93;;;45.13;;
22425;SDS011;11380;50.822;15.790;2023-03-07T23:38:50;49.88;;;45.75;;
22425;SDS011;11380;50.822;15.790;2023-03-07T23:43:58;48.77;;;44.80;;
22425;SDS011;11380;50.822;15.790;2023-03-07T23:49:06;48.47;;;44.70;;
22425;SDS011;11380;50.822;15.790;2023-03-07T23:54:13;48.80;;;45.07;;
22425;SDS011;11380;50.822;15.790;2023-03-07T23:59:20;50.28;;;46.35;;
